Time;durP1;ratioP1;P1;durP2;ratioP2;P2;SDS_P1;SDS_P2;PMS_P1;PMS_P2;Temp;Humidity;BMP_temperature;BMP_pressure;BME280_temperature;BME280_humidity;BME280_pressure;Samples;Min_cycle;Max_cycle;Signal;HPM_P1;HPM_P2
2022/10/08 00:01:08;;;;;;;1.75;0.80;;;17.50;87.10;;;;;;5015730;28;20099;-82
2022/10/08 00:03:46;;;;;;;1.38;0.30;;;17.50;87.00;;;;;;5015990;28;20022;-82
2022/10/08 00:09:44;;;;;;;0.30;0.20;;;17.50;87.00;;;;;;5017169;28;20088;-82
2022/10/08 00:12:19;;;;;;;0.30;0.20;;;17.50;86.80;;;;;;5015828;28;20113;-81
2022/10/08 00:18:16;;;;;;;0.13;0.13;;;17.50;87.30;;;;;;5017213;28;20033;-81
2022/10/08 00:21:08;;;;;;;0.30;0.10;;;17.40;87.80;;;;;;5013515;28;20370;-80
2022/10/08 00:23:52;;;;;;;0.95;0.55;;;17.30;88.20;;;;;;5016671;28;20322;-82
2022/10/08 00:29:55;;;;;;;0.20;0.10;;;17.10;88.10;;;;;;5017022;28;20137;-82
2022/10/08 00:32:30;;;;;;;1.13;0.82;;;17.00;88.50;;;;;;5015782;28;20037;-81
2022/10/08 00:38:17;;;;;;;0.10;0.10;;;17.10;88.40;;;;;;5016813;28;20067;-82
2022/10/08 00:40:52;;;;;;;0.25;0.25;;;17.10;88.40;;;;;;5016667;28;20408;-81
2022/10/08 00:43:58;;;;;;;0.28;0.25;;;17.20;88.30;;;;;;5015536;28;20026;-81
2022/10/08 00:46:41;;;;;;;0.35;0.20;;;17.10;88.20;;;;;;5013297;28;20030;-82
2022/10/08 00:49:21;;;;;;;1.00;0.17;;;17.10;88.60;;;;;;5015492;28;20356;-82
2022/10/08 00:51:57;;;;;;;0.52;0.32;;;16.90;88.90;;;;;;5015284;28;20080;-81
2022/10/08 00:57:45;;;;;;;0.03;0.03;;;16.80;89.20;;;;;;5016800;28;20314;-82
2022/10/08 01:00:31;;;;;;;0.30;0.20;;;16.70;90.00;;;;;;5015422;28;20109;-82
2022/10/08 01:03:06;;;;;;;1.63;0.82;;;16.40;90.40;;;;;;5015526;28;20302;-82
2022/10/08 01:09:07;;;;;;;0.38;0.30;;;16.30;90.90;;;;;;5016366;28;20490;-81
2022/10/08 01:11:55;;;;;;;0.17;0.10;;;16.30;90.60;;;;;;5016184;28;20022;-81
2022/10/08 01:18:02;;;;;;;0.52;0.40;;;16.40;90.30;;;;;;5016358;28;20032;-82
2022/10/08 01:20:51;;;;;;;0.70;0.52;;;16.50;90.20;;;;;;5012642;28;20046;-82
2022/10/08 01:24:14;;;;;;;0.10;0.10;;;16.50;89.90;;;;;;5016227;28;20029;-82
2022/10/08 01:27:08;;;;;;;0.10;0.10;;;16.60;89.60;;;;;;4996266;28;20022;-81
2022/10/08 01:29:49;;;;;;;0.28;0.20;;;16.50;89.30;;;;;;5018691;28;20026;-81
2022/10/08 01:32:52;;;;;;;0.50;0.35;;;16.60;89.50;;;;;;5018685;28;20033;-81
2022/10/08 01:38:44;;;;;;;0.20;0.13;;;16.40;90.20;;;;;;5019727;28;20072;-81
2022/10/08 01:41:25;;;;;;;0.08;0.05;;;16.30;90.50;;;;;;5018568;28;20053;-81
2022/10/08 01:47:38;;;;;;;0.30;0.20;;;16.20;90.60;;;;;;4998553;28;20077;-82
2022/10/08 01:50:28;;;;;;;0.17;0.10;;;16.20;90.30;;;;;;4981673;28;20037;-82
2022/10/08 01:53:35;;;;;;;0.25;0.22;;;16.20;90.60;;;;;;4997788;28;20060;-82
2022/10/08 02:00:01;;;;;;;0.50;0.20;;;16.30;89.90;;;;;;4997762;28;20068;-82
2022/10/08 02:02:36;;;;;;;0.10;0.10;;;16.30;89.40;;;;;;4999455;28;20407;-81
2022/10/08 02:05:11;;;;;;;0.20;0.10;;;16.30;89.40;;;;;;5019080;28;20338;-81
2022/10/08 02:07:42;;;;;;;1.10;1.00;;;16.30;90.00;;;;;;5018935;28;20072;-81
2022/10/08 02:10:21;;;;;;;1.27;0.60;;;16.20;89.90;;;;;;5017927;28;20403;-82
2022/10/08 02:12:57;;;;;;;0.13;0.13;;;16.00;90.70;;;;;;5017975;28;20022;-81
2022/10/08 02:19:21;;;;;;;0.13;0.13;;;15.60;92.50;;;;;;5019044;28;20036;-81
2022/10/08 02:22:00;;;;;;;0.25;0.20;;;15.40;92.70;;;;;;5025115;28;20046;-81
2022/10/08 02:28:03;;;;;;;0.60;0.30;;;15.30;94.00;;;;;;5018695;28;20029;-82
2022/10/08 02:30:54;;;;;;;0.75;0.75;;;15.10;94.30;;;;;;5017490;28;20033;-82
2022/10/08 02:33:53;;;;;;;0.15;0.10;;;15.00;94.40;;;;;;5017515;28;20048;-81
2022/10/08 02:40:02;;;;;;;0.00;0.00;;;14.90;95.60;;;;;;5018482;28;20029;-82
2022/10/08 02:42:42;;;;;;;0.10;0.10;;;14.80;95.20;;;;;;5017265;28;20029;-82
2022/10/08 02:48:32;;;;;;;1.17;0.90;;;14.60;96.80;;;;;;5018370;28;20028;-82
2022/10/08 02:51:13;;;;;;;0.17;0.17;;;14.50;97.20;;;;;;5017139;28;20022;-82
2022/10/08 02:53:48;;;;;;;0.40;0.20;;;14.50;96.90;;;;;;5017046;28;20045;-82
2022/10/08 02:59:45;;;;;;;0.57;0.57;;;14.40;96.70;;;;;;5018488;28;20137;-83
2022/10/08 03:03:08;;;;;;;0.30;0.30;;;14.30;97.40;;;;;;5017842;28;20307;-81
2022/10/08 03:09:14;;;;;;;0.00;0.00;;;14.20;98.00;;;;;;5018381;28;20025;-82
2022/10/08 03:11:51;;;;;;;0.22;0.20;;;14.20;98.00;;;;;;5016776;28;20068;-82
2022/10/08 03:17:48;;;;;;;0.22;0.20;;;14.10;98.00;;;;;;5018003;28;20045;-82
2022/10/08 03:20:25;;;;;;;0.13;0.10;;;14.10;98.00;;;;;;5016761;28;20034;-82
2022/10/08 03:23:50;;;;;;;0.47;0.22;;;14.00;98.00;;;;;;4992118;28;20458;-82
2022/10/08 03:27:15;;;;;;;0.15;0.10;;;14.00;98.00;;;;;;5017831;28;20029;-82
2022/10/08 03:30:41;;;;;;;0.55;0.55;;;14.10;98.00;;;;;;5016486;28;20361;-82
2022/10/08 03:37:42;;;;;;;0.10;0.10;;;14.00;98.00;;;;;;5017796;28;20105;-81
2022/10/08 03:41:08;;;;;;;0.28;0.28;;;14.00;98.00;;;;;;5016304;28;20406;-81
2022/10/08 03:47:09;;;;;;;0.10;0.10;;;13.90;98.00;;;;;;5017765;28;20025;-82
2022/10/08 03:49:44;;;;;;;0.10;0.10;;;13.90;98.00;;;;;;5015757;28;20026;-82
2022/10/08 03:52:19;;;;;;;0.10;0.10;;;14.00;98.00;;;;;;5016259;28;20322;-82
2022/10/08 03:54:53;;;;;;;0.53;0.53;;;14.00;98.00;;;;;;4999819;28;20307;-81
2022/10/08 03:57:19;;;;;;;0.23;0.17;;;13.90;98.00;;;;;;5017118;28;20032;-82
2022/10/08 03:59:54;;;;;;;0.00;0.00;;;13.90;98.00;;;;;;5016093;28;20022;-82
2022/10/08 04:02:31;;;;;;;0.17;0.13;;;13.90;98.00;;;;;;4999728;28;20429;-83
2022/10/08 04:08:19;;;;;;;0.00;0.00;;;14.00;97.80;;;;;;5017491;28;20298;-82
2022/10/08 04:11:04;;;;;;;0.45;0.25;;;14.00;98.00;;;;;;5015818;28;20026;-81
2022/10/08 04:13:40;;;;;;;0.30;0.30;;;14.00;97.70;;;;;;5015868;28;20018;-82
2022/10/08 04:19:18;;;;;;;0.65;0.65;;;13.90;97.70;;;;;;5017079;28;19916;-82
2022/10/08 04:21:53;;;;;;;0.60;0.35;;;13.90;97.80;;;;;;5016865;28;20152;-82
2022/10/08 04:27:41;;;;;;;0.25;0.15;;;14.10;97.40;;;;;;5017081;28;20080;-81
2022/10/08 04:30:23;;;;;;;1.10;0.50;;;14.10;97.00;;;;;;5015753;28;20029;-82
2022/10/08 04:32:58;;;;;;;0.00;0.00;;;14.10;97.10;;;;;;5016592;28;20026;-82
2022/10/08 04:38:46;;;;;;;0.57;0.57;;;13.90;97.80;;;;;;5016645;28;20040;-82
2022/10/08 04:41:32;;;;;;;0.00;0.00;;;13.80;98.00;;;;;;5015506;28;20029;-81
2022/10/08 04:51:04;;;;;;;0.10;0.10;;;13.70;98.00;;;;;;5016801;28;20502;-82
2022/10/08 04:53:39;;;;;;;0.45;0.40;;;13.70;98.00;;;;;;5015365;28;20430;-82
2022/10/08 04:59:39;;;;;;;0.40;0.40;;;13.70;98.00;;;;;;5016393;28;20064;-82
2022/10/08 05:02:14;;;;;;;0.15;0.15;;;13.60;98.00;;;;;;5001425;28;20018;-81
2022/10/08 05:08:02;;;;;;;3.58;0.85;;;13.70;98.00;;;;;;5020293;28;20421;-81
2022/10/08 05:10:37;;;;;;;0.20;0.10;;;13.80;98.00;;;;;;5019175;28;20057;-82
2022/10/08 05:13:12;;;;;;;0.00;0.00;;;13.90;98.00;;;;;;5019164;28;20022;-82
2022/10/08 05:19:08;;;;;;;0.75;0.45;;;14.00;97.60;;;;;;5020460;28;20131;-81
2022/10/08 05:21:43;;;;;;;0.10;0.10;;;14.00;97.70;;;;;;5019956;28;20022;-82
2022/10/08 05:24:19;;;;;;;0.20;0.15;;;14.00;97.50;;;;;;5017187;28;20038;-81
2022/10/08 05:26:45;;;;;;;0.95;0.55;;;13.90;97.90;;;;;;5002416;28;20030;-81
2022/10/08 05:29:20;;;;;;;0.52;0.38;;;13.90;98.00;;;;;;5002400;28;20318;-81
2022/10/08 05:31:55;;;;;;;0.00;0.00;;;13.80;98.00;;;;;;5002321;28;20161;-82
2022/10/08 05:37:43;;;;;;;0.45;0.40;;;13.70;98.00;;;;;;5019809;28;20072;-81
2022/10/08 05:40:19;;;;;;;0.20;0.10;;;13.70;98.00;;;;;;5002085;28;20022;-82
2022/10/08 05:42:54;;;;;;;0.10;0.10;;;13.70;98.00;;;;;;5018538;28;20279;-82
2022/10/08 05:48:42;;;;;;;0.00;0.00;;;13.70;98.00;;;;;;5019604;28;20037;-82
2022/10/08 05:51:17;;;;;;;1.17;0.25;;;13.80;98.00;;;;;;5018410;28;20040;-81
2022/10/08 05:53:54;;;;;;;0.10;0.10;;;13.90;98.00;;;;;;5019437;28;20029;-82
2022/10/08 05:59:57;;;;;;;0.65;0.22;;;14.00;98.00;;;;;;5019275;28;20095;-81
2022/10/08 06:02:31;;;;;;;0.30;0.30;;;14.00;98.00;;;;;;5018093;28;20030;-82
2022/10/08 06:08:20;;;;;;;0.20;0.10;;;14.30;98.00;;;;;;5019375;28;20020;-81
2022/10/08 06:11:32;;;;;;;0.00;0.00;;;14.50;98.00;;;;;;5018146;28;20034;-81
2022/10/08 06:14:10;;;;;;;0.00;0.00;;;14.70;98.00;;;;;;5018881;28;20026;-82
2022/10/08 06:16:37;;;;;;;0.10;0.10;;;14.90;97.90;;;;;;5018917;28;20022;-82
2022/10/08 06:19:18;;;;;;;0.30;0.20;;;15.10;97.70;;;;;;5017824;28;20022;-82
2022/10/08 06:21:53;;;;;;;0.20;0.20;;;15.20;97.50;;;;;;5001431;28;20080;-83
2022/10/08 06:27:40;;;;;;;0.00;0.00;;;15.40;97.80;;;;;;5018849;28;20013;-82
2022/10/08 06:30:16;;;;;;;0.50;0.50;;;15.50;98.00;;;;;;5017750;28;20038;-82
2022/10/08 06:32:50;;;;;;;0.20;0.20;;;15.50;98.00;;;;;;5017539;28;20080;-81
2022/10/08 06:38:38;;;;;;;0.32;0.22;;;15.60;98.00;;;;;;5018302;28;20068;-82
2022/10/08 06:41:13;;;;;;;0.55;0.30;;;15.70;97.00;;;;;;5018368;28;20026;-81
2022/10/08 06:47:01;;;;;;;0.35;0.30;;;15.90;95.90;;;;;;5018655;28;20044;-82
2022/10/08 06:49:36;;;;;;;0.57;0.57;;;16.00;95.80;;;;;;5017287;28;20026;-81
2022/10/08 06:55:23;;;;;;;1.25;0.47;;;16.10;95.40;;;;;;5018321;28;20029;-82
2022/10/08 06:57:49;;;;;;;0.30;0.20;;;16.10;95.50;;;;;;5018126;28;20302;-82
2022/10/08 07:00:25;;;;;;;0.68;0.43;;;16.20;94.90;;;;;;5016914;28;20068;-81
2022/10/08 07:03:00;;;;;;;0.30;0.20;;;16.30;94.60;;;;;;5017078;28;20021;-82
2022/10/08 07:09:01;;;;;;;0.20;0.20;;;16.50;92.80;;;;;;5018165;28;20302;-82
2022/10/08 07:11:37;;;;;;;0.22;0.22;;;16.60;93.10;;;;;;5016891;28;20398;-82
2022/10/08 07:14:13;;;;;;;0.40;0.20;;;16.60;93.30;;;;;;5000652;28;20151;-82
2022/10/08 07:16:39;;;;;;;0.08;0.08;;;16.70;93.00;;;;;;5017818;28;20018;-81
2022/10/08 07:19:14;;;;;;;0.10;0.10;;;16.80;93.00;;;;;;5032974;28;20038;-82
2022/10/08 07:21:49;;;;;;;0.33;0.23;;;16.80;92.90;;;;;;5016798;28;20409;-82
2022/10/08 07:27:37;;;;;;;0.50;0.40;;;17.00;92.60;;;;;;5017836;28;20017;-81
2022/10/08 07:30:12;;;;;;;0.10;0.10;;;17.00;93.70;;;;;;5032984;28;20030;-82
2022/10/08 07:32:50;;;;;;;0.57;0.50;;;17.00;94.40;;;;;;5016490;28;20026;-79
2022/10/08 07:38:39;;;;;;;0.68;0.30;;;17.00;95.90;;;;;;5017654;28;20028;-80
2022/10/08 07:41:14;;;;;;;0.45;0.30;;;17.00;94.20;;;;;;5016207;28;20021;-79
2022/10/08 07:43:51;;;;;;;0.22;0.10;;;17.00;93.70;;;;;;5016274;28;20120;-82
2022/10/08 07:49:51;;;;;;;5.68;0.73;;;17.00;93.50;;;;;;5017392;28;20100;-82
2022/10/08 07:52:26;;;;;;;0.32;0.20;;;17.10;94.10;;;;;;5016164;28;20026;-79
2022/10/08 07:58:14;;;;;;;0.22;0.20;;;17.30;94.60;;;;;;5017176;28;20100;-82
2022/10/08 08:00:49;;;;;;;0.45;0.30;;;17.40;94.30;;;;;;5015903;28;20026;-82
2022/10/08 08:03:25;;;;;;;0.17;0.15;;;17.60;92.90;;;;;;5015952;28;20030;-79
2022/10/08 08:09:22;;;;;;;0.55;0.35;;;17.90;92.90;;;;;;5017517;28;20043;-82
2022/10/08 08:11:57;;;;;;;0.22;0.15;;;18.20;91.10;;;;;;5015817;28;20096;-81
2022/10/08 08:17:45;;;;;;;0.17;0.15;;;19.50;89.60;;;;;;5016902;28;20017;-82
2022/10/08 08:20:23;;;;;;;0.22;0.15;;;20.60;84.40;;;;;;5015745;28;20030;-81
2022/10/08 08:22:58;;;;;;;1.88;0.57;;;21.60;82.20;;;;;;5014030;28;20046;-80
2022/10/08 08:29:05;;;;;;;0.22;0.20;;;23.00;75.40;;;;;;5017206;28;20029;-81
2022/10/08 08:31:43;;;;;;;0.63;0.40;;;23.70;76.50;;;;;;5016821;28;20084;-80
2022/10/08 08:34:23;;;;;;;0.52;0.38;;;24.10;74.90;;;;;;5016600;28;20292;-80
2022/10/08 08:36:52;;;;;;;0.65;0.43;;;24.40;74.60;;;;;;5020427;28;20032;-80
2022/10/08 08:39:33;;;;;;;0.28;0.17;;;24.00;73.40;;;;;;5020627;28;20021;-80
2022/10/08 08:42:33;;;;;;;0.40;0.40;;;24.00;74.30;;;;;;5019592;28;20025;-80
2022/10/08 08:48:24;;;;;;;1.10;1.00;;;24.20;72.50;;;;;;5020956;28;20025;-80
2022/10/08 08:50:59;;;;;;;0.40;0.22;;;24.70;71.40;;;;;;5019434;28;20406;-80
2022/10/08 08:53:34;;;;;;;0.40;0.30;;;25.00;70.90;;;;;;5019388;28;20028;-80
2022/10/08 08:59:40;;;;;;;0.90;0.50;;;25.20;70.00;;;;;;5020341;28;20389;-80
2022/10/08 09:03:05;;;;;;;0.20;0.20;;;25.40;68.90;;;;;;5019269;28;20030;-80
2022/10/08 09:09:01;;;;;;;0.30;0.20;;;25.80;68.80;;;;;;5020086;28;20318;-80
2022/10/08 09:11:38;;;;;;;0.47;0.30;;;26.00;68.00;;;;;;5020076;28;20045;-79
2022/10/08 09:14:52;;;;;;;0.40;0.20;;;26.10;68.30;;;;;;5020039;28;20038;-79
2022/10/08 09:18:05;;;;;;;0.20;0.10;;;26.10;66.40;;;;;;4998567;28;20037;-80
2022/10/08 09:20:41;;;;;;;0.70;0.38;;;25.70;67.00;;;;;;4981875;28;20073;-80
2022/10/08 09:24:06;;;;;;;1.23;0.55;;;25.70;68.90;;;;;;4996168;28;20061;-80
2022/10/08 09:27:21;;;;;;;0.22;0.10;;;26.00;68.10;;;;;;4998276;28;20030;-80
2022/10/08 09:30:46;;;;;;;0.40;0.20;;;26.20;66.60;;;;;;4998106;28;20073;-80
2022/10/08 09:36:59;;;;;;;0.65;0.43;;;26.20;68.00;;;;;;5002168;28;20150;-79
2022/10/08 09:39:38;;;;;;;1.67;0.85;;;26.30;67.90;;;;;;4998079;28;20038;-80
2022/10/08 09:42:16;;;;;;;0.38;0.20;;;26.20;66.70;;;;;;4981696;28;20022;-79
2022/10/08 09:44:56;;;;;;;0.80;0.30;;;26.00;67.50;;;;;;5014221;28;20033;-79
2022/10/08 09:47:24;;;;;;;0.20;0.20;;;26.00;68.60;;;;;;5018343;28;20061;-79
2022/10/08 09:50:21;;;;;;;0.52;0.35;;;26.30;68.50;;;;;;5018423;28;20406;-79
2022/10/08 09:52:57;;;;;;;0.43;0.40;;;26.60;67.40;;;;;;5018324;28;20022;-79
2022/10/08 09:59:00;;;;;;;0.43;0.30;;;26.70;66.50;;;;;;5019397;28;20072;-79
2022/10/08 10:01:44;;;;;;;0.47;0.40;;;26.70;68.70;;;;;;5018124;28;20287;-79
2022/10/08 10:04:37;;;;;;;0.20;0.15;;;26.30;68.30;;;;;;5019027;28;20350;-80
2022/10/08 10:07:04;;;;;;;0.13;0.10;;;26.40;69.20;;;;;;5017954;28;20025;-79
2022/10/08 10:09:54;;;;;;;0.47;0.10;;;26.80;68.30;;;;;;5018989;28;20032;-79
2022/10/08 10:12:31;;;;;;;0.40;0.30;;;27.10;68.50;;;;;;5017868;28;20037;-80
2022/10/08 10:15:47;;;;;;;0.32;0.20;;;27.20;67.30;;;;;;5019217;28;20068;-80
2022/10/08 10:18:34;;;;;;;0.20;0.20;;;27.20;67.10;;;;;;5018921;28;20025;-80
2022/10/08 10:21:25;;;;;;;1.45;1.08;;;26.90;65.40;;;;;;5018904;28;20041;-80
2022/10/08 10:24:30;;;;;;;0.70;0.40;;;26.80;67.30;;;;;;5015803;28;20057;-80
2022/10/08 10:27:02;;;;;;;0.32;0.32;;;26.80;67.10;;;;;;5018701;28;20055;-79
2022/10/08 10:30:25;;;;;;;0.60;0.30;;;26.50;68.20;;;;;;5018598;28;20026;-79
2022/10/08 10:33:14;;;;;;;0.63;0.30;;;26.30;67.30;;;;;;5032765;28;20029;-79
2022/10/08 10:35:55;;;;;;;0.73;0.30;;;26.20;71.10;;;;;;5018426;28;20120;-80
2022/10/08 10:38:44;;;;;;;0.55;0.30;;;26.40;70.00;;;;;;5017501;28;20025;-79
2022/10/08 10:41:42;;;;;;;0.40;0.20;;;26.70;71.10;;;;;;5017425;28;20059;-80
2022/10/08 10:44:25;;;;;;;0.70;0.40;;;26.60;69.60;;;;;;5017291;28;20022;-79
2022/10/08 10:46:56;;;;;;;0.30;0.10;;;26.50;69.90;;;;;;5018263;28;20303;-79
2022/10/08 10:49:45;;;;;;;0.22;0.13;;;26.70;70.10;;;;;;5018262;28;20080;-79
2022/10/08 10:52:45;;;;;;;1.15;0.63;;;26.90;70.10;;;;;;5017224;28;20079;-79
2022/10/08 10:55:50;;;;;;;0.80;0.20;;;27.00;69.00;;;;;;5016993;28;20029;-79
2022/10/08 11:01:50;;;;;;;0.77;0.63;;;26.70;68.30;;;;;;5018367;28;20024;-80
2022/10/08 11:04:53;;;;;;;0.20;0.10;;;26.70;70.40;;;;;;5017844;28;20314;-80
2022/10/08 11:07:59;;;;;;;0.77;0.50;;;26.60;69.70;;;;;;5016844;28;20284;-81
2022/10/08 11:11:04;;;;;;;0.35;0.20;;;26.70;71.10;;;;;;5016840;28;20034;-80
2022/10/08 11:14:49;;;;;;;1.30;0.63;;;26.80;71.90;;;;;;5017784;28;20026;-80
2022/10/08 11:17:28;;;;;;;1.90;0.88;;;26.60;70.60;;;;;;4996191;28;20442;-81
2022/10/08 11:20:36;;;;;;;0.45;0.30;;;26.40;68.80;;;;;;4996018;28;20097;-80
2022/10/08 11:23:55;;;;;;;1.75;0.40;;;26.20;69.90;;;;;;4993211;28;20042;-80
2022/10/08 11:26:51;;;;;;;0.32;0.20;;;26.00;71.30;;;;;;4995896;28;20116;-80
2022/10/08 11:29:36;;;;;;;0.68;0.50;;;26.10;72.10;;;;;;4993101;28;20201;-80
2022/10/08 11:32:32;;;;;;;0.70;0.50;;;26.10;71.80;;;;;;4995934;28;20081;-80
2022/10/08 11:35:33;;;;;;;0.40;0.30;;;25.90;72.30;;;;;;4995931;28;20030;-80
2022/10/08 11:38:37;;;;;;;0.10;0.10;;;25.70;74.00;;;;;;4995942;28;20030;-80
2022/10/08 11:41:31;;;;;;;0.65;0.30;;;25.60;71.20;;;;;;4979709;28;20061;-80
2022/10/08 11:44:10;;;;;;;0.85;0.40;;;25.50;70.90;;;;;;4979559;28;20315;-80
2022/10/08 11:46:36;;;;;;;0.32;0.30;;;25.40;75.10;;;;;;5012209;28;20113;-80
2022/10/08 11:49:13;;;;;;;0.45;0.28;;;25.40;71.90;;;;;;4995788;28;20037;-80
2022/10/08 11:51:54;;;;;;;0.90;0.60;;;25.30;75.40;;;;;;5006022;28;20041;-80
2022/10/08 11:54:49;;;;;;;0.32;0.20;;;25.00;72.50;;;;;;5016005;28;20034;-80
2022/10/08 11:57:31;;;;;;;2.97;0.98;;;25.00;73.00;;;;;;5017204;28;20045;-80
2022/10/08 12:00:49;;;;;;;0.75;0.30;;;24.80;73.30;;;;;;5015975;28;20037;-80
2022/10/08 12:03:52;;;;;;;0.50;0.40;;;24.70;74.40;;;;;;5015927;28;20033;-80
2022/10/08 12:10:28;;;;;;;0.57;0.32;;;24.50;74.80;;;;;;5016847;28;20080;-80
2022/10/08 12:13:32;;;;;;;0.50;0.30;;;24.30;77.60;;;;;;5016994;28;20346;-80
2022/10/08 12:16:03;;;;;;;0.47;0.30;;;24.20;74.90;;;;;;5042682;28;20029;-80
2022/10/08 12:18:42;;;;;;;0.55;0.40;;;24.10;72.90;;;;;;5016836;28;20283;-80
2022/10/08 12:22:03;;;;;;;0.93;0.70;;;23.90;77.30;;;;;;5016040;28;20377;-80
2022/10/08 12:28:34;;;;;;;0.20;0.20;;;23.70;77.30;;;;;;5017466;28;20045;-80
2022/10/08 12:31:59;;;;;;;1.67;0.88;;;23.50;76.40;;;;;;5016663;28;20446;-80
2022/10/08 12:34:34;;;;;;;1.25;0.60;;;23.40;78.50;;;;;;5022284;28;20365;-81
2022/10/08 12:37:11;;;;;;;0.50;0.30;;;23.20;74.90;;;;;;5015669;28;20214;-80
2022/10/08 12:40:26;;;;;;;0.95;0.80;;;23.00;75.90;;;;;;5033163;28;20065;-81
2022/10/08 12:43:14;;;;;;;0.65;0.50;;;22.80;75.70;;;;;;5015606;28;20030;-80
2022/10/08 12:49:40;;;;;;;1.55;0.43;;;22.80;75.80;;;;;;5016881;28;20025;-80
2022/10/08 12:52:55;;;;;;;0.95;0.50;;;22.80;76.30;;;;;;5015583;28;20026;-80
2022/10/08 12:55:35;;;;;;;2.97;0.85;;;22.70;77.80;;;;;;5015311;28;20029;-80
2022/10/08 12:58:17;;;;;;;0.30;0.20;;;22.70;76.90;;;;;;5015360;28;20314;-80
2022/10/08 13:01:05;;;;;;;0.70;0.45;;;22.60;75.90;;;;;;5016407;28;20026;-81
2022/10/08 13:03:41;;;;;;;0.90;0.68;;;22.60;79.80;;;;;;5015310;28;20026;-81
2022/10/08 13:06:16;;;;;;;3.97;1.13;;;22.60;80.90;;;;;;5015370;28;20414;-80
2022/10/08 13:08:51;;;;;;;;;;;22.60;77.30;;;;;;5016758;28;20097;-80
2022/10/08 13:11:27;;;;;;;0.68;0.63;;;22.50;78.10;;;;;;5015248;28;19916;-80
2022/10/08 13:14:03;;;;;;;0.30;0.30;;;22.40;80.10;;;;;;5016383;28;20022;-80
2022/10/08 13:16:45;;;;;;;1.17;0.63;;;22.40;81.50;;;;;;5015208;28;20292;-80
2022/10/08 13:19:37;;;;;;;2.15;1.08;;;22.40;81.40;;;;;;5016337;28;20029;-80
2022/10/08 13:22:41;;;;;;;0.30;0.30;;;22.40;78.50;;;;;;4999524;28;20030;-80
2022/10/08 13:25:40;;;;;;;0.45;0.20;;;22.30;76.60;;;;;;5045448;28;20315;-80
2022/10/08 13:28:21;;;;;;;0.80;0.50;;;22.20;75.50;;;;;;5019822;28;20014;-80
2022/10/08 13:30:58;;;;;;;0.93;0.52;;;22.20;79.30;;;;;;5018760;28;20120;-80
2022/10/08 13:33:33;;;;;;;0.60;0.47;;;22.10;78.80;;;;;;5018589;28;20164;-80
2022/10/08 13:39:35;;;;;;;0.70;0.50;;;22.00;78.00;;;;;;5019759;28;20037;-80
2022/10/08 13:42:30;;;;;;;1.02;0.85;;;21.90;78.60;;;;;;5002370;28;20022;-81
2022/10/08 13:48:18;;;;;;;0.52;0.50;;;21.80;79.40;;;;;;5019776;28;20401;-80
2022/10/08 13:51:03;;;;;;;0.55;0.38;;;21.70;81.80;;;;;;5018573;28;20069;-81
2022/10/08 13:53:40;;;;;;;0.80;0.28;;;21.60;79.00;;;;;;5019372;28;20022;-80
2022/10/08 13:56:06;;;;;;;0.65;0.50;;;21.60;81.40;;;;;;5019432;28;20025;-81
2022/10/08 13:58:47;;;;;;;0.65;0.30;;;21.50;77.90;;;;;;5018264;28;20038;-80
2022/10/08 14:01:22;;;;;;;0.38;0.32;;;21.50;81.40;;;;;;5018129;28;20041;-80
2022/10/08 14:03:58;;;;;;;0.55;0.32;;;21.50;80.90;;;;;;5001885;28;20064;-80
2022/10/08 14:06:24;;;;;;;0.43;0.30;;;21.50;81.60;;;;;;5001782;28;20029;-80
2022/10/08 14:09:30;;;;;;;1.48;0.95;;;21.40;79.30;;;;;;5018042;28;20022;-81
2022/10/08 14:12:09;;;;;;;0.50;0.30;;;21.40;81.20;;;;;;5018051;28;20469;-80
2022/10/08 14:17:57;;;;;;;1.67;0.28;;;21.30;80.30;;;;;;5019278;28;20033;-80
2022/10/08 14:20:47;;;;;;;2.47;1.08;;;21.30;82.40;;;;;;5001380;28;20025;-80
2022/10/08 14:23:22;;;;;;;0.40;0.30;;;21.30;80.10;;;;;;5018774;28;20052;-80
2022/10/08 14:29:19;;;;;;;1.20;0.75;;;21.20;79.30;;;;;;5019011;28;20322;-81
2022/10/08 14:31:57;;;;;;;1.08;0.85;;;21.10;79.80;;;;;;5017623;28;20014;-81
2022/10/08 14:34:33;;;;;;;0.55;0.45;;;21.00;83.10;;;;;;5017197;28;20025;-80
2022/10/08 14:36:58;;;;;;;1.00;0.25;;;21.00;81.20;;;;;;5018601;28;20018;-79
2022/10/08 14:39:40;;;;;;;0.60;0.30;;;20.90;81.00;;;;;;5017362;28;20117;-79
2022/10/08 14:42:15;;;;;;;2.33;0.60;;;20.90;80.90;;;;;;5001063;28;20026;-80
2022/10/08 14:44:52;;;;;;;0.63;0.40;;;20.90;82.10;;;;;;5001005;28;20026;-80
2022/10/08 14:47:18;;;;;;;0.50;0.38;;;20.80;82.10;;;;;;5018430;28;20018;-80
2022/10/08 14:50:02;;;;;;;0.43;0.20;;;20.80;82.50;;;;;;5017282;28;20466;-80
2022/10/08 14:52:37;;;;;;;0.82;0.63;;;20.70;81.50;;;;;;5017188;28;20022;-80
2022/10/08 14:58:37;;;;;;;1.38;0.73;;;20.60;82.90;;;;;;5018532;28;20079;-80
2022/10/08 15:01:12;;;;;;;0.38;0.38;;;20.60;83.50;;;;;;5016979;28;20042;-80
2022/10/08 15:03:46;;;;;;;0.22;0.20;;;20.50;83.40;;;;;;5017077;28;20072;-80
2022/10/08 15:09:46;;;;;;;0.50;0.35;;;20.50;83.10;;;;;;5018190;28;20374;-80
2022/10/08 15:12:24;;;;;;;0.28;0.25;;;20.40;82.00;;;;;;5017011;28;20022;-81
2022/10/08 15:18:27;;;;;;;0.70;0.50;;;20.30;84.40;;;;;;5018136;28;20156;-80
2022/10/08 15:21:03;;;;;;;1.05;0.50;;;20.20;85.10;;;;;;5017654;28;20037;-81
2022/10/08 15:26:58;;;;;;;0.50;0.40;;;20.10;86.40;;;;;;5009913;28;20505;-80
2022/10/08 15:29:36;;;;;;;0.60;0.40;;;20.00;85.90;;;;;;5016669;28;20406;-80
2022/10/08 15:32:10;;;;;;;1.00;0.38;;;19.90;85.30;;;;;;5016442;28;20326;-80
2022/10/08 15:34:45;;;;;;;3.92;0.75;;;19.80;86.10;;;;;;5017556;28;20026;-81
2022/10/08 15:37:57;;;;;;;0.98;0.50;;;19.70;86.80;;;;;;5017756;28;20022;-80
2022/10/08 15:40:32;;;;;;;1.98;1.05;;;19.60;86.60;;;;;;5016189;28;20472;-80
2022/10/08 15:43:07;;;;;;;0.20;0.20;;;19.50;88.20;;;;;;5016350;28;20026;-80
2022/10/08 15:49:05;;;;;;;0.20;0.10;;;19.30;90.70;;;;;;5017580;28;20298;-80
2022/10/08 15:51:40;;;;;;;1.05;0.85;;;19.10;90.50;;;;;;5017371;28;20022;-80
2022/10/08 15:57:28;;;;;;;0.50;0.40;;;19.00;90.60;;;;;;5017575;28;20076;-79
2022/10/08 16:00:12;;;;;;;0.43;0.35;;;18.80;90.10;;;;;;4999669;28;20414;-81
2022/10/08 16:02:47;;;;;;;0.63;0.47;;;18.70;90.90;;;;;;4999758;28;20026;-80
2022/10/08 16:05:22;;;;;;;1.38;0.70;;;18.60;91.20;;;;;;5017053;28;20461;-80
2022/10/08 16:07:48;;;;;;;0.60;0.30;;;18.40;92.10;;;;;;5015939;28;20084;-81
2022/10/08 16:10:32;;;;;;;0.20;0.13;;;18.30;91.80;;;;;;5016047;28;20033;-80
2022/10/08 16:13:07;;;;;;;0.20;0.20;;;18.20;92.60;;;;;;5016967;28;20026;-81
2022/10/08 16:19:10;;;;;;;1.90;1.10;;;18.00;92.80;;;;;;5016943;28;20025;-80
2022/10/08 16:21:47;;;;;;;0.40;0.30;;;17.90;92.50;;;;;;5015829;28;20068;-81
2022/10/08 16:24:23;;;;;;;0.80;0.80;;;17.90;93.40;;;;;;5015705;28;20026;-81
2022/10/08 16:26:49;;;;;;;0.35;0.25;;;17.90;92.60;;;;;;5013907;28;20081;-80
2022/10/08 16:29:27;;;;;;;0.60;0.40;;;17.80;92.80;;;;;;5015762;28;20022;-80
2022/10/08 16:32:02;;;;;;;0.50;0.38;;;17.70;92.30;;;;;;5015739;28;20028;-80
2022/10/08 16:37:52;;;;;;;1.00;0.68;;;17.60;93.60;;;;;;5017087;28;20068;-80
2022/10/08 16:40:27;;;;;;;0.32;0.32;;;17.60;93.10;;;;;;5015568;28;20030;-80
2022/10/08 16:43:02;;;;;;;0.40;0.30;;;17.50;93.40;;;;;;5016661;28;20022;-80
2022/10/08 16:45:47;;;;;;;1.90;0.40;;;17.50;93.60;;;;;;4999197;28;20033;-80
2022/10/08 16:48:22;;;;;;;0.50;0.40;;;17.50;93.30;;;;;;5016712;28;20046;-79
2022/10/08 16:51:01;;;;;;;0.82;0.73;;;17.50;93.40;;;;;;5016631;28;20026;-80
2022/10/08 16:53:38;;;;;;;1.50;0.75;;;17.60;93.50;;;;;;5016568;28;20036;-79
2022/10/08 16:56:04;;;;;;;0.25;0.20;;;17.60;92.90;;;;;;5017188;28;20029;-80
2022/10/08 16:58:42;;;;;;;4.38;1.63;;;17.70;93.10;;;;;;5019358;28;20022;-81
2022/10/08 17:01:17;;;;;;;0.32;0.32;;;17.70;92.90;;;;;;5019196;28;20038;-80
2022/10/08 17:03:55;;;;;;;0.63;0.43;;;17.80;92.80;;;;;;5020367;28;20048;-80
2022/10/08 17:09:55;;;;;;;0.60;0.50;;;17.90;93.60;;;;;;5020640;28;20029;-79
2022/10/08 17:12:30;;;;;;;1.17;1.02;;;17.90;94.00;;;;;;5002837;28;20021;-80
2022/10/08 17:18:31;;;;;;;0.75;0.65;;;17.80;93.40;;;;;;5020152;28;20445;-80
2022/10/08 17:21:06;;;;;;;1.85;0.90;;;17.80;93.30;;;;;;5018942;28;20034;-80
2022/10/08 17:23:42;;;;;;;1.10;0.67;;;17.80;93.70;;;;;;5002610;28;20025;-79
2022/10/08 17:32:51;;;;;;;0.63;0.63;;;17.80;95.20;;;;;;5019786;28;20194;-79
2022/10/08 17:35:26;;;;;;;0.68;0.57;;;17.90;96.30;;;;;;5018614;28;20022;-79
2022/10/08 17:37:51;;;;;;;0.63;0.55;;;17.90;96.90;;;;;;5002451;28;20067;-79
2022/10/08 17:40:29;;;;;;;0.93;0.65;;;17.90;97.30;;;;;;5018762;28;20105;-80
2022/10/08 17:43:04;;;;;;;1.00;0.57;;;18.00;97.30;;;;;;5019586;28;20022;-79
2022/10/08 17:48:52;;;;;;;0.90;0.80;;;18.10;98.00;;;;;;5019914;28;20346;-80
2022/10/08 17:51:29;;;;;;;0.50;0.50;;;18.10;98.00;;;;;;5002013;28;20046;-79
2022/10/08 17:57:18;;;;;;;3.10;0.98;;;18.20;98.00;;;;;;5019728;28;20036;-80
2022/10/08 17:59:52;;;;;;;1.50;0.90;;;18.20;98.00;;;;;;5034715;28;20040;-79
2022/10/08 18:02:27;;;;;;;0.87;0.73;;;18.30;98.00;;;;;;5019118;28;20026;-80
2022/10/08 18:08:15;;;;;;;0.63;0.40;;;18.40;98.00;;;;;;5018571;28;20272;-79